createdAt,value
2018-09-10T00:01:14.818Z,5.00
2018-09-10T00:03:43.393Z,5.50
2018-09-10T00:06:11.954Z,7.47
2018-09-10T00:08:40.514Z,3.83
2018-09-10T00:11:09.048Z,4.53
2018-09-10T00:13:37.527Z,8.17
2018-09-10T00:16:06.132Z,8.30
2018-09-10T00:18:34.664Z,5.70
2018-09-10T00:21:03.584Z,5.60
2018-09-10T00:23:32.111Z,2.87
2018-09-10T00:26:01.337Z,5.63
2018-09-10T00:28:29.886Z,3.13
2018-09-10T00:30:58.392Z,6.70
2018-09-10T00:33:27.036Z,3.20
2018-09-10T00:35:55.645Z,3.87
2018-09-10T00:38:24.194Z,4.30
2018-09-10T00:40:52.710Z,4.33
2018-09-10T00:43:21.526Z,5.43
2018-09-10T00:45:50.097Z,4.53
2018-09-10T00:48:18.882Z,4.40
2018-09-10T00:50:47.849Z,5.70
2018-09-10T00:53:16.635Z,5.13
2018-09-10T00:55:45.506Z,5.47
2018-09-10T00:58:14.477Z,4.37
2018-09-10T01:00:43.103Z,3.23
2018-09-10T01:03:12.316Z,3.00
2018-09-10T01:05:41.242Z,6.07
2018-09-10T01:08:09.741Z,3.83
2018-09-10T01:10:38.385Z,4.10
2018-09-10T01:13:07.052Z,3.07
2018-09-10T01:15:35.584Z,4.23
2018-09-10T01:18:04.153Z,3.47
2018-09-10T01:20:32.827Z,3.50
2018-09-10T01:23:01.277Z,8.90
2018-09-10T01:25:29.817Z,4.10
2018-09-10T01:27:58.259Z,5.00
2018-09-10T01:30:26.742Z,3.87
2018-09-10T01:32:55.178Z,3.53
2018-09-10T01:35:23.962Z,6.20
2018-09-10T01:37:52.478Z,10.73
2018-09-10T01:40:21.001Z,6.33
2018-09-10T01:42:49.454Z,6.53
2018-09-10T01:45:17.945Z,5.93
2018-09-10T01:47:46.987Z,6.20
2018-09-10T01:50:15.483Z,5.20
2018-09-10T01:52:43.953Z,3.80
2018-09-10T01:55:12.423Z,5.77
2018-09-10T01:57:41.326Z,5.60
2018-09-10T02:00:09.794Z,4.57
2018-09-10T02:02:38.248Z,2.97
2018-09-10T02:05:06.779Z,4.33
2018-09-10T02:07:35.231Z,4.93
2018-09-10T02:10:03.794Z,5.13
2018-09-10T02:12:32.242Z,5.43
2018-09-10T02:15:00.746Z,4.37
2018-09-10T02:17:29.191Z,8.30
2018-09-10T02:19:57.776Z,12.73
2018-09-10T02:22:26.247Z,5.47
2018-09-10T02:24:54.739Z,9.07
2018-09-10T02:27:23.245Z,3.50
2018-09-10T02:29:51.687Z,4.23
2018-09-10T02:32:20.229Z,3.90
2018-09-10T02:34:48.732Z,4.07
2018-09-10T02:37:17.278Z,4.93
2018-09-10T02:39:45.768Z,5.10
2018-09-10T02:42:14.226Z,5.33
2018-09-10T02:44:42.758Z,4.57
2018-09-10T02:47:11.198Z,3.73
2018-09-10T02:49:39.829Z,4.00
2018-09-10T02:52:08.353Z,5.73
2018-09-10T02:54:36.867Z,4.93
2018-09-10T02:57:05.900Z,4.30
2018-09-10T02:59:34.375Z,6.40
2018-09-10T03:02:02.886Z,4.80
2018-09-10T03:04:31.482Z,4.13
2018-09-10T03:06:59.989Z,4.83
2018-09-10T03:09:28.462Z,3.83
2018-09-10T03:11:56.986Z,5.17
2018-09-10T03:14:25.613Z,3.87
2018-09-10T03:16:54.110Z,3.87
2018-09-10T03:19:22.659Z,4.37
2018-09-10T03:21:51.495Z,4.00
2018-09-10T03:24:20.059Z,4.63
2018-09-10T03:26:48.518Z,4.10
2018-09-10T03:29:17.010Z,5.13
2018-09-10T03:31:45.491Z,4.73
2018-09-10T03:34:13.987Z,6.93
2018-09-10T03:36:48.926Z,5.80
2018-09-10T03:39:17.422Z,5.97
2018-09-10T03:41:45.894Z,6.57
2018-09-10T03:44:14.414Z,7.23
2018-09-10T03:46:42.892Z,3.50
2018-09-10T03:49:11.390Z,4.43
2018-09-10T03:51:39.849Z,9.10
2018-09-10T03:54:08.663Z,5.13
2018-09-10T03:56:37.123Z,4.20
2018-09-10T03:59:05.628Z,6.33
2018-09-10T04:01:34.077Z,4.57
2018-09-10T04:04:02.711Z,3.53
2018-09-10T04:06:31.636Z,4.87
2018-09-10T04:09:00.121Z,7.80
2018-09-10T04:11:28.628Z,8.70
2018-09-10T04:13:57.197Z,5.17
2018-09-10T04:16:25.688Z,4.10
2018-09-10T04:18:54.486Z,4.47
2018-09-10T04:21:23.086Z,5.63
2018-09-10T04:23:51.567Z,9.77
2018-09-10T04:26:20.086Z,5.20
2018-09-10T04:28:48.578Z,4.00
2018-09-10T04:31:17.322Z,6.03
2018-09-10T04:33:45.825Z,8.83
2018-09-10T04:36:14.482Z,5.27
2018-09-10T04:38:43.068Z,6.70
2018-09-10T04:41:11.773Z,5.40
2018-09-10T04:43:40.326Z,7.20
2018-09-10T04:46:09.282Z,15.63
2018-09-10T04:48:37.798Z,6.87
2018-09-10T04:51:06.305Z,7.23
2018-09-10T04:53:34.773Z,4.70
2018-09-10T04:56:03.303Z,5.33
2018-09-10T04:58:31.773Z,9.63
2018-09-10T05:01:00.765Z,6.77
2018-09-10T05:03:29.330Z,7.43
2018-09-10T05:05:58.059Z,4.00
2018-09-10T05:08:26.554Z,5.43
2018-09-10T05:10:55.242Z,4.70
2018-09-10T05:13:23.751Z,7.23
2018-09-10T05:15:52.217Z,14.17
2018-09-10T05:18:20.843Z,11.17
2018-09-10T05:20:49.703Z,7.93
2018-09-10T05:23:18.994Z,6.97
2018-09-10T05:25:47.507Z,5.57
2018-09-10T05:28:16.566Z,5.67
2018-09-10T05:30:45.006Z,8.10
2018-09-10T05:33:13.518Z,6.93
2018-09-10T05:35:42.078Z,6.87
2018-09-10T05:38:10.585Z,10.40
2018-09-10T05:40:39.151Z,9.70
2018-09-10T05:43:07.622Z,13.57
2018-09-10T05:45:36.181Z,10.60
2018-09-10T05:48:04.666Z,7.87
2018-09-10T05:50:33.159Z,10.03
2018-09-10T05:53:01.726Z,18.50
2018-09-10T05:55:31.123Z,8.37
2018-09-10T05:57:59.600Z,7.30
2018-09-10T06:00:28.042Z,9.80
2018-09-10T06:02:58.580Z,12.80
2018-09-10T06:05:27.068Z,8.80
2018-09-10T06:07:55.766Z,14.40
2018-09-10T06:10:24.498Z,16.33
2018-09-10T06:12:53.014Z,13.90
2018-09-10T06:15:21.488Z,14.63
2018-09-10T06:17:49.991Z,14.03
2018-09-10T06:20:18.453Z,6.00
2018-09-10T06:22:46.933Z,14.20
2018-09-10T06:25:15.459Z,9.60
2018-09-10T06:27:44.107Z,9.00
2018-09-10T06:30:12.591Z,20.20
2018-09-10T06:32:41.715Z,23.00
2018-09-10T06:35:10.199Z,26.53
2018-09-10T06:37:38.706Z,9.83
2018-09-10T06:40:07.198Z,16.10
2018-09-10T06:42:35.695Z,16.30
2018-09-10T06:45:04.417Z,23.13
2018-09-10T06:47:32.898Z,16.93
2018-09-10T06:50:01.353Z,12.80
2018-09-10T06:52:29.923Z,16.60
2018-09-10T06:54:58.491Z,18.43
2018-09-10T06:57:27.024Z,11.03
2018-09-10T06:59:55.459Z,11.43
2018-09-10T07:02:23.914Z,16.40
2018-09-10T07:04:52.451Z,30.53
2018-09-10T07:07:21.829Z,13.90
2018-09-10T07:09:50.370Z,24.23
2018-09-10T07:12:18.832Z,13.83
2018-09-10T07:14:47.358Z,14.37
2018-09-10T07:17:15.827Z,17.87
2018-09-10T07:19:44.326Z,19.33
2018-09-10T07:22:12.777Z,9.80
2018-09-10T07:24:41.421Z,22.17
2018-09-10T07:27:09.939Z,18.50
2018-09-10T07:29:38.473Z,20.33
2018-09-10T07:32:06.955Z,13.13
2018-09-10T07:34:35.512Z,17.50
2018-09-10T07:37:04.107Z,10.93
2018-09-10T07:39:32.649Z,12.90
2018-09-10T07:42:01.145Z,23.53
2018-09-10T07:44:29.697Z,33.97
2018-09-10T07:46:58.436Z,16.73
2018-09-10T07:49:27.047Z,29.60
2018-09-10T07:51:55.690Z,26.80
2018-09-10T07:54:24.247Z,16.27
2018-09-10T07:56:52.762Z,25.60
2018-09-10T07:59:21.476Z,16.30
2018-09-10T08:01:49.983Z,16.93
2018-09-10T08:04:18.652Z,16.90
2018-09-10T08:06:47.194Z,19.10
2018-09-10T08:09:15.840Z,16.10
2018-09-10T08:11:44.278Z,18.60
2018-09-10T08:14:12.825Z,20.30
2018-09-10T08:16:41.454Z,12.83
2018-09-10T08:19:10.083Z,17.60
2018-09-10T08:21:38.923Z,13.57
2018-09-10T08:24:07.551Z,13.40
2018-09-10T08:26:36.094Z,23.07
2018-09-10T08:29:04.674Z,6.40
2018-09-10T08:31:33.224Z,4.93
2018-09-10T08:34:01.712Z,14.77
2018-09-10T08:36:30.290Z,3.30
2018-09-10T08:38:59.383Z,6.23
2018-09-10T08:41:27.954Z,5.90
2018-09-10T08:43:56.565Z,5.33
2018-09-10T08:46:25.081Z,3.10
2018-09-10T08:48:53.676Z,5.87
2018-09-10T08:51:22.230Z,4.37
2018-09-10T08:53:50.816Z,3.07
2018-09-10T08:56:19.353Z,2.97
2018-09-10T08:58:47.837Z,6.13
2018-09-10T09:01:16.314Z,3.40
2018-09-10T09:03:44.858Z,13.63
2018-09-10T09:06:13.369Z,2.60
2018-09-10T09:08:42.147Z,8.63
2018-09-10T09:11:10.771Z,9.63
2018-09-10T09:13:39.332Z,3.30
2018-09-10T09:16:08.116Z,4.20
2018-09-10T09:18:36.636Z,2.53
2018-09-10T09:21:05.307Z,2.90
2018-09-10T09:23:34.214Z,2.53
2018-09-10T09:26:02.717Z,7.30
2018-09-10T09:28:31.263Z,3.83
2018-09-10T09:30:59.782Z,2.70
2018-09-10T09:33:28.812Z,3.10
2018-09-10T09:36:02.699Z,3.07
2018-09-10T09:38:36.511Z,8.30
2018-09-10T09:41:10.330Z,9.50
2018-09-10T09:43:44.235Z,2.30
2018-09-10T09:46:14.882Z,2.33
2018-09-10T09:48:43.418Z,3.80
2018-09-10T09:51:11.937Z,2.37
2018-09-10T09:53:40.423Z,6.93
2018-09-10T09:56:08.905Z,3.93
2018-09-10T09:58:37.494Z,4.30
2018-09-10T10:01:11.382Z,4.13
2018-09-10T10:03:45.429Z,5.67
2018-09-10T10:06:14.010Z,2.20
2018-09-10T10:08:42.704Z,3.43
2018-09-10T10:11:11.247Z,2.20
2018-09-10T10:13:39.799Z,2.70
2018-09-10T10:16:09.213Z,5.57
2018-09-10T10:18:37.773Z,5.87
2018-09-10T10:21:06.806Z,3.07
2018-09-10T10:23:35.360Z,4.37
2018-09-10T10:26:03.968Z,2.07
2018-09-10T10:28:33.108Z,7.40
2018-09-10T10:31:01.955Z,4.03
2018-09-10T10:33:30.503Z,4.87
2018-09-10T10:35:58.998Z,1.70
2018-09-10T10:38:28.170Z,3.77
2018-09-10T10:40:56.666Z,3.13
2018-09-10T10:43:25.211Z,5.63
2018-09-10T10:45:53.703Z,2.10
2018-09-10T10:48:22.263Z,6.23
2018-09-10T10:50:50.758Z,3.80
2018-09-10T10:53:19.306Z,3.80
2018-09-10T10:55:48.413Z,3.50
2018-09-10T10:58:16.999Z,2.40
2018-09-10T11:00:45.736Z,3.37
2018-09-10T11:03:15.040Z,5.10
2018-09-10T11:05:43.573Z,3.87
2018-09-10T11:08:12.106Z,2.50
2018-09-10T11:10:40.871Z,4.77
2018-09-10T11:13:12.294Z,2.60
2018-09-10T11:15:41.422Z,2.53
2018-09-10T11:18:10.028Z,2.87
2018-09-10T11:20:39.495Z,1.70
2018-09-10T11:23:08.167Z,3.30
2018-09-10T11:25:36.715Z,6.87
2018-09-10T11:28:05.836Z,2.10
2018-09-10T11:30:35.247Z,4.97
2018-09-10T11:33:03.862Z,4.17
2018-09-10T11:35:32.456Z,2.73
2018-09-10T11:38:00.990Z,3.13
2018-09-10T11:40:29.486Z,2.20
2018-09-10T11:42:58.146Z,3.90
2018-09-10T11:45:26.634Z,8.37
2018-09-10T11:47:55.195Z,2.67
2018-09-10T11:50:23.771Z,13.90
2018-09-10T11:52:52.618Z,4.13
2018-09-10T11:55:21.390Z,6.17
2018-09-10T11:57:49.932Z,12.03
2018-09-10T12:00:18.499Z,7.53
2018-09-10T12:02:47.020Z,13.10
2018-09-10T12:05:16.891Z,7.57
2018-09-10T12:07:46.768Z,5.53
2018-09-10T12:10:15.637Z,2.80
2018-09-10T12:12:44.455Z,3.03
2018-09-10T12:15:13.094Z,3.63
2018-09-10T12:17:41.608Z,3.60
2018-09-10T12:20:10.622Z,6.83
2018-09-10T12:22:39.215Z,3.80
2018-09-10T12:25:07.723Z,5.73
2018-09-10T12:27:36.317Z,2.63
2018-09-10T12:30:05.197Z,3.00
2018-09-10T12:32:33.804Z,1.70
2018-09-10T12:35:02.271Z,2.40
2018-09-10T12:37:31.145Z,2.50
2018-09-10T12:39:59.654Z,2.30
2018-09-10T12:42:28.368Z,2.43
2018-09-10T12:44:56.935Z,3.00
2018-09-10T12:47:25.491Z,3.07
2018-09-10T12:49:54.032Z,2.30
2018-09-10T12:52:22.752Z,2.23
2018-09-10T12:54:52.271Z,2.93
2018-09-10T12:57:23.938Z,3.30
2018-09-10T12:59:52.493Z,3.80
2018-09-10T13:02:21.047Z,5.30
2018-09-10T13:04:50.303Z,2.47
2018-09-10T13:07:19.539Z,2.40
2018-09-10T13:09:48.589Z,4.77
2018-09-10T13:12:17.171Z,3.03
2018-09-10T13:14:45.738Z,2.87
2018-09-10T13:17:14.478Z,3.33
2018-09-10T13:19:43.071Z,4.83
2018-09-10T13:22:11.850Z,4.73
2018-09-10T13:24:40.457Z,3.40
2018-09-10T13:27:08.971Z,2.90
2018-09-10T13:29:37.508Z,2.73
2018-09-10T13:32:06.872Z,2.30
2018-09-10T13:34:36.072Z,3.50
2018-09-10T13:37:04.664Z,6.70
2018-09-10T13:39:33.269Z,3.53
2018-09-10T13:42:01.946Z,1.83
2018-09-10T13:44:30.480Z,2.50
2018-09-10T13:46:59.006Z,3.37
2018-09-10T13:49:27.596Z,1.63
2018-09-10T13:51:56.092Z,6.80
2018-09-10T13:54:24.688Z,1.63
2018-09-10T13:56:53.192Z,3.53
2018-09-10T13:59:21.715Z,8.53
2018-09-10T14:01:50.229Z,1.93
2018-09-10T14:04:18.798Z,2.70
2018-09-10T14:06:47.338Z,1.57
2018-09-10T14:09:15.946Z,2.37
2018-09-10T14:11:44.683Z,2.00
2018-09-10T14:14:13.235Z,3.03
2018-09-10T14:16:41.848Z,2.73
2018-09-10T14:19:11.097Z,4.83
2018-09-10T14:21:39.615Z,3.87
2018-09-10T14:24:08.191Z,3.43
2018-09-10T14:26:36.720Z,2.93
2018-09-10T14:29:05.428Z,2.40
2018-09-10T14:31:33.985Z,1.47
2018-09-10T14:34:02.867Z,4.43
2018-09-10T14:36:31.417Z,1.77
2018-09-10T14:38:59.970Z,7.90
2018-09-10T14:41:28.470Z,2.10
2018-09-10T14:43:57.387Z,6.73
2018-09-10T14:46:25.947Z,3.83
2018-09-10T14:48:54.542Z,1.80
2018-09-10T14:51:23.123Z,6.53
2018-09-10T14:53:52.310Z,2.10
2018-09-10T14:56:20.814Z,5.20
2018-09-10T14:58:50.019Z,4.70
2018-09-10T15:01:18.559Z,3.20
2018-09-10T15:03:47.142Z,2.20
2018-09-10T15:06:15.644Z,2.00
2018-09-10T15:08:44.425Z,6.60
2018-09-10T15:11:13.303Z,4.50
2018-09-10T15:13:41.844Z,5.27
2018-09-10T15:16:10.335Z,5.47
2018-09-10T15:18:40.122Z,3.67
2018-09-10T15:21:08.577Z,3.50
2018-09-10T15:23:37.178Z,4.00
2018-09-10T15:26:06.109Z,4.40
2018-09-10T15:28:34.614Z,7.53
2018-09-10T15:31:03.181Z,2.80
2018-09-10T15:33:31.871Z,5.20
2018-09-10T15:36:00.918Z,4.23
2018-09-10T15:38:29.636Z,6.67
2018-09-10T15:40:58.680Z,2.27
2018-09-10T15:43:27.297Z,5.30
2018-09-10T15:45:56.053Z,2.40
2018-09-10T15:48:24.650Z,2.93
2018-09-10T15:50:53.255Z,6.93
2018-09-10T15:53:21.846Z,4.90
2018-09-10T15:55:50.490Z,8.87
2018-09-10T15:58:19.689Z,2.77
2018-09-10T16:00:48.539Z,4.17
2018-09-10T16:03:17.961Z,4.83
2018-09-10T16:05:46.509Z,5.50
2018-09-10T16:08:15.055Z,3.20
2018-09-10T16:10:43.635Z,4.33
2018-09-10T16:13:12.141Z,7.37
2018-09-10T16:15:40.699Z,10.60
2018-09-10T16:18:10.277Z,2.60
2018-09-10T16:20:38.823Z,2.60
2018-09-10T16:23:07.667Z,3.60
2018-09-10T16:25:36.231Z,4.17
2018-09-10T16:28:04.731Z,4.83
2018-09-10T16:30:33.911Z,5.83
2018-09-10T16:33:02.643Z,3.10
2018-09-10T16:35:31.179Z,3.90
2018-09-10T16:37:59.905Z,2.80
2018-09-10T16:40:28.493Z,12.43
2018-09-10T16:42:57.013Z,5.63
2018-09-10T16:45:25.586Z,11.43
2018-09-10T16:47:54.179Z,9.70
2018-09-10T16:50:22.789Z,4.33
2018-09-10T16:52:51.327Z,7.40
2018-09-10T16:55:19.916Z,4.60
2018-09-10T16:57:48.896Z,4.20
2018-09-10T17:00:17.495Z,5.13
2018-09-10T17:02:46.227Z,8.30
2018-09-10T17:05:15.667Z,7.40
2018-09-10T17:07:44.273Z,6.00
2018-09-10T17:10:12.891Z,5.60
2018-09-10T17:12:42.485Z,3.80
2018-09-10T17:15:11.237Z,7.30
2018-09-10T17:17:39.894Z,6.47
2018-09-10T17:20:08.469Z,6.10
2018-09-10T17:22:37.774Z,4.13
2018-09-10T17:25:07.081Z,5.10
2018-09-10T17:27:35.910Z,15.30
2018-09-10T17:30:04.752Z,9.77
2018-09-10T17:32:33.244Z,9.70
2018-09-10T17:35:02.975Z,10.63
2018-09-10T17:37:31.479Z,5.77
2018-09-10T17:40:00.146Z,12.70
2018-09-10T17:42:28.749Z,5.47
2018-09-10T17:44:57.481Z,7.20
2018-09-10T17:47:26.236Z,9.40
2018-09-10T17:49:54.914Z,6.70
2018-09-10T17:52:23.840Z,7.73
2018-09-10T17:54:52.351Z,7.57
2018-09-10T17:57:20.898Z,11.63
2018-09-10T17:59:49.470Z,12.03
2018-09-10T18:02:17.992Z,4.50
2018-09-10T18:04:46.557Z,6.60
2018-09-10T18:07:15.149Z,7.70
2018-09-10T18:09:43.658Z,5.40
2018-09-10T18:12:12.883Z,4.97
2018-09-10T18:14:41.606Z,11.47
2018-09-10T18:17:10.170Z,9.90
2018-09-10T18:19:39.034Z,5.93
2018-09-10T18:22:07.954Z,5.67
2018-09-10T18:24:36.553Z,2.50
2018-09-10T18:27:06.017Z,4.33
2018-09-10T18:29:34.609Z,5.63
2018-09-10T18:32:03.218Z,5.27
2018-09-10T18:34:32.502Z,5.23
2018-09-10T18:37:01.310Z,3.07
2018-09-10T18:39:29.919Z,3.97
2018-09-10T18:41:58.473Z,6.70
2018-09-10T18:44:27.039Z,11.40
2018-09-10T18:46:55.623Z,6.40
2018-09-10T18:49:24.755Z,6.93
2018-09-10T18:51:53.448Z,14.87
2018-09-10T18:54:22.778Z,8.10
2018-09-10T18:56:51.666Z,5.60
2018-09-10T18:59:20.399Z,4.60
2018-09-10T19:01:49.045Z,9.90
2018-09-10T19:04:18.882Z,11.07
2018-09-10T19:06:47.422Z,9.50
2018-09-10T19:09:16.036Z,9.57
2018-09-10T19:11:44.592Z,10.87
2018-09-10T19:14:13.375Z,6.00
2018-09-10T19:16:41.934Z,8.07
2018-09-10T19:19:11.257Z,10.87
2018-09-10T19:21:39.825Z,8.57
2018-09-10T19:24:08.385Z,4.50
2018-09-10T19:26:36.981Z,5.50
2018-09-10T19:29:05.491Z,6.10
2018-09-10T19:31:34.055Z,7.33
2018-09-10T19:34:02.581Z,9.00
2018-09-10T19:36:31.133Z,4.93
2018-09-10T19:38:59.666Z,11.03
2018-09-10T19:41:28.575Z,7.83
2018-09-10T19:43:57.399Z,8.70
2018-09-10T19:46:25.959Z,5.23
2018-09-10T19:48:54.504Z,7.60
2018-09-10T19:51:23.390Z,6.77
2018-09-10T19:53:52.025Z,6.13
2018-09-10T19:56:20.576Z,11.30
2018-09-10T19:58:49.143Z,5.10
2018-09-10T20:01:18.735Z,9.77
2018-09-10T20:03:47.275Z,9.90
2018-09-10T20:06:15.939Z,4.90
2018-09-10T20:08:45.094Z,8.70
2018-09-10T20:11:13.683Z,3.80
2018-09-10T20:13:42.645Z,5.97
2018-09-10T20:16:11.246Z,5.30
2018-09-10T20:18:40.381Z,7.10
2018-09-10T20:21:08.962Z,4.87
2018-09-10T20:23:37.517Z,5.97
2018-09-10T20:26:07.278Z,7.93
2018-09-10T20:28:35.826Z,8.53
2018-09-10T20:31:04.941Z,14.50
2018-09-10T20:34:07.782Z,8.00
2018-09-10T20:36:37.480Z,13.07
2018-09-10T20:39:10.338Z,5.73
2018-09-10T20:41:39.389Z,4.77
2018-09-10T20:44:08.039Z,6.20
2018-09-10T20:46:36.848Z,6.87
2018-09-10T20:49:05.813Z,5.93
2018-09-10T20:51:34.406Z,8.07
2018-09-10T20:54:03.502Z,12.83
2018-09-10T20:56:32.044Z,8.80
2018-09-10T20:59:00.788Z,7.37
2018-09-10T21:01:29.318Z,5.47
2018-09-10T21:03:58.029Z,4.13
2018-09-10T21:06:26.803Z,10.87
2018-09-10T21:08:55.698Z,7.83
2018-09-10T21:11:24.250Z,12.07
2018-09-10T21:13:52.832Z,16.30
2018-09-10T21:16:21.354Z,8.17
2018-09-10T21:18:49.919Z,5.00
2018-09-10T21:21:18.956Z,8.47
2018-09-10T21:23:48.418Z,5.67
2018-09-10T21:26:16.967Z,10.93
2018-09-10T21:28:45.466Z,7.73
2018-09-10T21:31:14.694Z,3.93
2018-09-10T21:33:43.275Z,5.17
2018-09-10T21:36:11.831Z,5.07
2018-09-10T21:38:41.210Z,8.70
2018-09-10T21:41:09.905Z,7.43
2018-09-10T21:43:38.398Z,11.40
2018-09-10T21:46:07.235Z,5.70
2018-09-10T21:48:35.702Z,6.20
2018-09-10T21:51:04.240Z,7.30
2018-09-10T21:53:33.191Z,4.80
2018-09-10T21:56:01.726Z,5.00
2018-09-10T21:58:30.579Z,5.67
2018-09-10T22:00:59.164Z,6.87
2018-09-10T22:03:28.725Z,10.67
2018-09-10T22:05:57.490Z,10.17
2018-09-10T22:08:26.245Z,5.93
2018-09-10T22:10:54.730Z,5.87
2018-09-10T22:13:23.291Z,9.33
2018-09-10T22:15:52.022Z,9.23
2018-09-10T22:18:20.605Z,13.20
2018-09-10T22:20:49.105Z,9.10
2018-09-10T22:23:17.651Z,5.47
2018-09-10T22:25:47.070Z,6.73
2018-09-10T22:28:15.620Z,4.00
2018-09-10T22:30:44.119Z,8.43
2018-09-10T22:33:12.701Z,7.37
2018-09-10T22:35:41.221Z,3.50
2018-09-10T22:38:09.785Z,6.03
2018-09-10T22:40:38.305Z,10.93
2018-09-10T22:43:06.840Z,11.10
2018-09-10T22:45:35.390Z,8.13
2018-09-10T22:48:03.928Z,10.13
2018-09-10T22:50:32.710Z,6.33
2018-09-10T22:53:01.281Z,6.47
2018-09-10T22:55:30.120Z,5.07
2018-09-10T22:57:58.695Z,5.37
2018-09-10T23:00:27.506Z,4.43
2018-09-10T23:02:56.190Z,7.13
2018-09-10T23:05:24.877Z,10.27
2018-09-10T23:07:53.394Z,5.70
2018-09-10T23:10:21.873Z,6.60
2018-09-10T23:12:50.647Z,12.03
2018-09-10T23:15:19.205Z,4.03
2018-09-10T23:17:48.118Z,10.60
2018-09-10T23:20:16.590Z,5.37
2018-09-10T23:22:45.115Z,6.13
2018-09-10T23:25:13.612Z,6.53
2018-09-10T23:27:42.257Z,10.17
2018-09-10T23:30:17.256Z,3.03
2018-09-10T23:32:46.670Z,9.30
2018-09-10T23:35:15.243Z,6.77
2018-09-10T23:37:43.726Z,3.57
2018-09-10T23:40:12.263Z,4.13
2018-09-10T23:42:40.789Z,6.27
2018-09-10T23:45:09.346Z,5.33
2018-09-10T23:47:37.866Z,3.40
2018-09-10T23:50:06.907Z,4.00
2018-09-10T23:52:35.450Z,3.23
2018-09-10T23:55:04.119Z,6.43
2018-09-10T23:57:32.626Z,4.90
